sensor_id;sensor_type;location;lat;lon;timestamp;pressure;altitude;pressure_sealevel;temperature;humidity
60417;BME280;46263;44.726;10.396;2022-08-04T00:01:08;100343.97;;;24.73;69.86
60417;BME280;46263;44.726;10.396;2022-08-04T00:03:51;100340.22;;;24.60;70.55
60417;BME280;46263;44.726;10.396;2022-08-04T00:06:33;100341.69;;;24.57;70.98
60417;BME280;46263;44.726;10.396;2022-08-04T00:09:09;100345.25;;;24.84;69.25
60417;BME280;46263;44.726;10.396;2022-08-04T00:11:35;100340.88;;;24.91;68.66
60417;BME280;46263;44.726;10.396;2022-08-04T00:14:03;100348.66;;;24.81;69.10
60417;BME280;46263;44.726;10.396;2022-08-04T00:16:29;100347.50;;;24.65;69.73
60417;BME280;46263;44.726;10.396;2022-08-04T00:18:57;100348.31;;;24.48;70.45
60417;BME280;46263;44.726;10.396;2022-08-04T00:22:25;63966.91;;;-144.34;100.00
60417;BME280;46263;44.726;10.396;2022-08-04T00:24:54;100348.31;;;24.48;70.45
60417;BME280;46263;44.726;10.396;2022-08-04T00:27:19;100345.88;;;24.46;69.62
60417;BME280;46263;44.726;10.396;2022-08-04T00:29:45;100356.03;;;24.37;70.65
60417;BME280;46263;44.726;10.396;2022-08-04T00:32:10;100350.69;;;24.32;70.70
60417;BME280;46263;44.726;10.396;2022-08-04T00:34:36;100353.13;;;24.34;70.61
60417;BME280;46263;44.726;10.396;2022-08-04T00:37:02;100346.06;;;24.10;71.30
60417;BME280;46263;44.726;10.396;2022-08-04T00:39:28;100337.38;;;24.17;70.56
60417;BME280;46263;44.726;10.396;2022-08-04T00:44:31;100336.75;;;24.20;70.54
60417;BME280;46263;44.726;10.396;2022-08-04T00:49:32;100344.69;;;24.30;70.07
60417;BME280;46263;44.726;10.396;2022-08-04T00:52:05;100344.66;;;24.21;70.08
60417;BME280;46263;44.726;10.396;2022-08-04T01:05:22;100336.75;;;24.20;69.98
60417;BME280;46263;44.726;10.396;2022-08-04T01:08:00;100336.56;;;24.16;69.84
60417;BME280;46263;44.726;10.396;2022-08-04T01:10:39;100332.84;;;24.12;70.07
60417;BME280;46263;44.726;10.396;2022-08-04T01:16:04;100332.72;;;24.26;68.87
60417;BME280;46263;44.726;10.396;2022-08-04T01:24:04;100329.94;;;24.09;69.16
60417;BME280;46263;44.726;10.396;2022-08-04T01:29:48;100336.34;;;23.96;69.74
60417;BME280;46263;44.726;10.396;2022-08-04T01:32:30;100341.31;;;24.25;68.15
60417;BME280;46263;44.726;10.396;2022-08-04T01:35:01;100337.31;;;24.00;69.40
60417;BME280;46263;44.726;10.396;2022-08-04T01:40:03;100337.22;;;24.13;69.01
60417;BME280;46263;44.726;10.396;2022-08-04T01:42:30;100340.56;;;24.02;69.59
60417;BME280;46263;44.726;10.396;2022-08-04T01:44:56;100338.19;;;24.17;69.91
60417;BME280;46263;44.726;10.396;2022-08-04T01:47:22;100336.72;;;24.11;70.29
60417;BME280;46263;44.726;10.396;2022-08-04T01:49:52;100336.41;;;24.13;70.22
60417;BME280;46263;44.726;10.396;2022-08-04T01:52:19;100341.88;;;24.13;70.90
60417;BME280;46263;44.726;10.396;2022-08-04T01:54:44;100340.25;;;24.03;71.47
60417;BME280;46263;44.726;10.396;2022-08-04T01:57:11;100337.25;;;23.82;71.77
60417;BME280;46263;44.726;10.396;2022-08-04T01:59:36;100342.63;;;23.87;71.75
60417;BME280;46263;44.726;10.396;2022-08-04T02:02:02;100333.56;;;23.87;71.61
60417;BME280;46263;44.726;10.396;2022-08-04T02:04:28;100342.78;;;23.91;71.22
60417;BME280;46263;44.726;10.396;2022-08-04T02:09:22;100344.09;;;23.94;71.06
60417;BME280;46263;44.726;10.396;2022-08-04T02:11:52;100343.28;;;23.93;70.88
60417;BME280;46263;44.726;10.396;2022-08-04T02:17:10;100352.78;;;23.87;74.16
60417;BME280;46263;44.726;10.396;2022-08-04T02:19:40;100357.78;;;23.54;75.82
60417;BME280;46263;44.726;10.396;2022-08-04T02:22:12;100351.72;;;23.43;77.73
60417;BME280;46263;44.726;10.396;2022-08-04T02:24:42;100351.34;;;23.59;76.30
60417;BME280;46263;44.726;10.396;2022-08-04T02:27:09;100349.81;;;23.75;73.89
60417;BME280;46263;44.726;10.396;2022-08-04T02:29:43;100347.59;;;23.85;73.09
60417;BME280;46263;44.726;10.396;2022-08-04T02:32:46;100349.75;;;23.58;74.38
60417;BME280;46263;44.726;10.396;2022-08-04T02:35:06;100348.97;;;23.66;77.68
60417;BME280;46263;44.726;10.396;2022-08-04T02:37:32;100356.25;;;23.70;76.70
60417;BME280;46263;44.726;10.396;2022-08-04T02:39:59;100350.59;;;23.67;77.20
60417;BME280;46263;44.726;10.396;2022-08-04T02:42:25;100354.00;;;23.50;78.21
60417;BME280;46263;44.726;10.396;2022-08-04T02:44:51;100348.66;;;23.45;79.10
60417;BME280;46263;44.726;10.396;2022-08-04T02:47:20;100351.53;;;23.62;78.24
60417;BME280;46263;44.726;10.396;2022-08-04T02:49:46;100353.50;;;23.70;77.56
60417;BME280;46263;44.726;10.396;2022-08-04T02:52:11;100352.38;;;23.71;77.65
60417;BME280;46263;44.726;10.396;2022-08-04T02:54:39;100352.50;;;23.35;80.30
60417;BME280;46263;44.726;10.396;2022-08-04T02:57:07;100351.88;;;23.38;79.54
60417;BME280;46263;44.726;10.396;2022-08-04T02:59:40;100351.03;;;23.60;78.49
60417;BME280;46263;44.726;10.396;2022-08-04T03:02:08;100350.97;;;23.51;80.73
60417;BME280;46263;44.726;10.396;2022-08-04T03:04:35;100349.13;;;23.61;79.41
60417;BME280;46263;44.726;10.396;2022-08-04T03:12:25;100350.19;;;23.29;80.70
60417;BME280;46263;44.726;10.396;2022-08-04T03:15:07;100351.69;;;23.35;82.10
60417;BME280;46263;44.726;10.396;2022-08-04T03:23:03;100344.78;;;23.46;81.93
60417;BME280;46263;44.726;10.396;2022-08-04T03:38:22;100337.47;;;23.33;81.99
60417;BME280;46263;44.726;10.396;2022-08-04T03:46:04;100333.81;;;23.46;79.73
60417;BME280;46263;44.726;10.396;2022-08-04T03:51:26;100337.19;;;23.43;79.66
60417;BME280;46263;44.726;10.396;2022-08-04T03:57:07;100336.38;;;23.42;78.85
60417;BME280;46263;44.726;10.396;2022-08-04T04:05:04;100345.50;;;23.29;77.41
60417;BME280;46263;44.726;10.396;2022-08-04T04:23:36;100352.44;;;23.04;83.42
60417;BME280;46263;44.726;10.396;2022-08-04T04:37:04;100348.69;;;23.00;84.14
60417;BME280;46263;44.726;10.396;2022-08-04T04:42:54;100359.75;;;23.17;79.94
60417;BME280;46263;44.726;10.396;2022-08-04T04:48:06;100366.19;;;23.13;78.71
60417;BME280;46263;44.726;10.396;2022-08-04T04:50:46;100362.81;;;23.16;79.59
60417;BME280;46263;44.726;10.396;2022-08-04T04:58:44;100354.13;;;23.45;72.33
60417;BME280;46263;44.726;10.396;2022-08-04T05:06:44;100358.97;;;23.70;70.59
60417;BME280;46263;44.726;10.396;2022-08-04T05:09:17;100359.78;;;23.62;70.87
60417;BME280;46263;44.726;10.396;2022-08-04T05:12:05;100351.53;;;23.62;71.45
60417;BME280;46263;44.726;10.396;2022-08-04T05:14:39;100361.78;;;23.79;70.83
60417;BME280;46263;44.726;10.396;2022-08-04T05:19:51;100362.09;;;23.77;71.89
60417;BME280;46263;44.726;10.396;2022-08-04T05:22:41;100362.31;;;23.89;72.39
60417;BME280;46263;44.726;10.396;2022-08-04T05:25:11;100366.19;;;23.88;71.69
60417;BME280;46263;44.726;10.396;2022-08-04T05:27:40;100365.94;;;24.07;71.08
60417;BME280;46263;44.726;10.396;2022-08-04T05:30:07;100368.56;;;24.21;70.99
60417;BME280;46263;44.726;10.396;2022-08-04T05:32:39;100365.53;;;24.31;68.99
60417;BME280;46263;44.726;10.396;2022-08-04T05:35:08;100369.53;;;24.16;69.78
60417;BME280;46263;44.726;10.396;2022-08-04T05:37:34;100370.16;;;24.13;69.43
60417;BME280;46263;44.726;10.396;2022-08-04T05:40:03;100374.56;;;24.23;68.81
60417;BME280;46263;44.726;10.396;2022-08-04T05:42:30;100374.94;;;24.39;67.98
60417;BME280;46263;44.726;10.396;2022-08-04T05:44:57;100373.06;;;24.17;68.24
60417;BME280;46263;44.726;10.396;2022-08-04T05:47:23;100379.31;;;24.40;67.74
60417;BME280;46263;44.726;10.396;2022-08-04T05:49:49;100373.84;;;24.57;67.55
60417;BME280;46263;44.726;10.396;2022-08-04T05:52:14;100377.41;;;24.83;67.25
60417;BME280;46263;44.726;10.396;2022-08-04T05:54:40;100373.56;;;24.76;66.67
60417;BME280;46263;44.726;10.396;2022-08-04T05:57:06;100379.19;;;24.62;66.55
60417;BME280;46263;44.726;10.396;2022-08-04T05:59:33;100375.59;;;24.44;68.44
60417;BME280;46263;44.726;10.396;2022-08-04T06:02:00;100375.31;;;24.63;69.50
60417;BME280;46263;44.726;10.396;2022-08-04T06:04:28;100368.53;;;24.78;67.75
60417;BME280;46263;44.726;10.396;2022-08-04T06:06:55;100375.03;;;24.99;67.75
60417;BME280;46263;44.726;10.396;2022-08-04T06:09:20;100380.84;;;25.23;65.95
60417;BME280;46263;44.726;10.396;2022-08-04T06:11:46;100374.16;;;25.50;63.72
60417;BME280;46263;44.726;10.396;2022-08-04T06:14:13;100378.69;;;25.46;62.92
60417;BME280;46263;44.726;10.396;2022-08-04T06:16:40;100376.75;;;25.55;62.55
60417;BME280;46263;44.726;10.396;2022-08-04T06:19:08;100380.34;;;25.13;62.91
60417;BME280;46263;44.726;10.396;2022-08-04T06:21:36;100376.63;;;25.17;63.92
60417;BME280;46263;44.726;10.396;2022-08-04T06:24:03;100375.66;;;25.31;63.48
60417;BME280;46263;44.726;10.396;2022-08-04T06:26:28;100380.34;;;25.21;63.41
60417;BME280;46263;44.726;10.396;2022-08-04T06:28:57;100381.50;;;25.38;63.78
60417;BME280;46263;44.726;10.396;2022-08-04T06:31:22;100376.13;;;25.41;63.14
60417;BME280;46263;44.726;10.396;2022-08-04T06:34:07;100374.16;;;25.50;62.82
60417;BME280;46263;44.726;10.396;2022-08-04T06:36:34;100375.22;;;25.84;61.57
60417;BME280;46263;44.726;10.396;2022-08-04T06:39:02;100370.22;;;25.86;61.16
60417;BME280;46263;44.726;10.396;2022-08-04T06:41:27;100373.00;;;26.15;60.15
60417;BME280;46263;44.726;10.396;2022-08-04T06:43:53;100379.78;;;26.18;61.64
60417;BME280;46263;44.726;10.396;2022-08-04T06:46:19;100383.88;;;26.12;62.34
60417;BME280;46263;44.726;10.396;2022-08-04T06:48:44;100383.03;;;26.20;61.54
60417;BME280;46263;44.726;10.396;2022-08-04T06:51:10;100374.69;;;26.29;62.44
60417;BME280;46263;44.726;10.396;2022-08-04T06:53:38;100382.47;;;26.35;61.54
60417;BME280;46263;44.726;10.396;2022-08-04T06:56:03;100384.91;;;26.37;60.83
60417;BME280;46263;44.726;10.396;2022-08-04T06:58:30;100388.47;;;26.58;60.20
60417;BME280;46263;44.726;10.396;2022-08-04T07:00:56;100391.72;;;26.60;60.59
60417;BME280;46263;44.726;10.396;2022-08-04T07:03:26;100383.88;;;26.71;59.80
60417;BME280;46263;44.726;10.396;2022-08-04T07:05:51;100377.63;;;26.82;59.61
60417;BME280;46263;44.726;10.396;2022-08-04T07:08:17;100381.78;;;26.88;59.46
60417;BME280;46263;44.726;10.396;2022-08-04T07:10:43;100376.72;;;26.99;59.11
60417;BME280;46263;44.726;10.396;2022-08-04T07:13:08;100383.84;;;27.00;59.43
60417;BME280;46263;44.726;10.396;2022-08-04T07:15:34;100376.84;;;27.03;59.83
60417;BME280;46263;44.726;10.396;2022-08-04T07:18:00;100378.22;;;26.88;59.38
60417;BME280;46263;44.726;10.396;2022-08-04T07:20:28;100378.47;;;27.04;59.64
60417;BME280;46263;44.726;10.396;2022-08-04T07:22:54;100387.09;;;27.14;59.14
60417;BME280;46263;44.726;10.396;2022-08-04T07:25:20;100374.38;;;27.22;59.06
60417;BME280;46263;44.726;10.396;2022-08-04T07:27:45;100383.25;;;27.28;58.55
60417;BME280;46263;44.726;10.396;2022-08-04T07:30:11;100381.09;;;27.33;57.76
60417;BME280;46263;44.726;10.396;2022-08-04T07:32:37;100374.44;;;27.34;57.96
60417;BME280;46263;44.726;10.396;2022-08-04T07:35:06;100379.91;;;27.22;60.78
60417;BME280;46263;44.726;10.396;2022-08-04T07:37:31;100378.16;;;27.50;56.97
60417;BME280;46263;44.726;10.396;2022-08-04T07:39:57;100370.13;;;27.57;56.69
60417;BME280;46263;44.726;10.396;2022-08-04T07:42:22;100368.94;;;27.67;56.96
60417;BME280;46263;44.726;10.396;2022-08-04T07:44:48;100376.19;;;27.72;53.13
60417;BME280;46263;44.726;10.396;2022-08-04T07:47:13;100363.16;;;27.72;52.95
60417;BME280;46263;44.726;10.396;2022-08-04T07:49:40;100370.78;;;27.87;53.12
60417;BME280;46263;44.726;10.396;2022-08-04T07:52:05;100370.91;;;27.91;52.89
60417;BME280;46263;44.726;10.396;2022-08-04T07:54:31;100366.53;;;28.02;52.43
60417;BME280;46263;44.726;10.396;2022-08-04T07:56:57;100370.13;;;28.15;51.64
60417;BME280;46263;44.726;10.396;2022-08-04T07:59:22;100373.69;;;28.15;52.17
60417;BME280;46263;44.726;10.396;2022-08-04T08:01:48;100370.91;;;28.03;51.91
60417;BME280;46263;44.726;10.396;2022-08-04T08:04:14;100373.91;;;28.10;52.77
60417;BME280;46263;44.726;10.396;2022-08-04T08:06:40;100370.38;;;28.22;54.08
60417;BME280;46263;44.726;10.396;2022-08-04T08:09:10;100364.97;;;28.26;53.30
60417;BME280;46263;44.726;10.396;2022-08-04T08:11:36;100371.16;;;28.47;52.58
60417;BME280;46263;44.726;10.396;2022-08-04T08:14:01;100365.00;;;28.66;52.79
60417;BME280;46263;44.726;10.396;2022-08-04T08:16:26;100370.66;;;28.69;51.29
60417;BME280;46263;44.726;10.396;2022-08-04T08:18:52;100368.97;;;28.52;50.58
60417;BME280;46263;44.726;10.396;2022-08-04T08:21:19;100357.69;;;28.45;49.74
60417;BME280;46263;44.726;10.396;2022-08-04T08:23:44;100358.19;;;28.75;48.92
60417;BME280;46263;44.726;10.396;2022-08-04T08:26:10;100358.50;;;28.98;51.39
60417;BME280;46263;44.726;10.396;2022-08-04T08:28:35;100364.97;;;28.90;49.74
60417;BME280;46263;44.726;10.396;2022-08-04T08:31:01;100358.13;;;29.12;50.62
60417;BME280;46263;44.726;10.396;2022-08-04T08:33:26;100363.97;;;29.38;50.58
60417;BME280;46263;44.726;10.396;2022-08-04T08:38:17;100368.06;;;29.29;49.40
60417;BME280;46263;44.726;10.396;2022-08-04T08:40:49;100362.72;;;29.36;48.95
60417;BME280;46263;44.726;10.396;2022-08-04T08:43:18;100364.31;;;29.80;49.50
60417;BME280;46263;44.726;10.396;2022-08-04T08:56:00;100370.84;;;30.04;48.91
60417;BME280;46263;44.726;10.396;2022-08-04T09:04:08;100366.84;;;30.17;45.38
60417;BME280;46263;44.726;10.396;2022-08-04T09:11:31;100365.31;;;29.88;44.88
60417;BME280;46263;44.726;10.396;2022-08-04T09:14:04;100364.59;;;29.91;44.62
60417;BME280;46263;44.726;10.396;2022-08-04T09:16:50;100372.09;;;29.90;45.25
60417;BME280;46263;44.726;10.396;2022-08-04T09:24:28;100367.94;;;30.47;43.41
60417;BME280;46263;44.726;10.396;2022-08-04T09:27:00;100366.63;;;30.41;44.07
60417;BME280;46263;44.726;10.396;2022-08-04T09:37:43;100358.03;;;31.01;41.08
60417;BME280;46263;44.726;10.396;2022-08-04T09:44:51;100347.94;;;31.31;39.54
60417;BME280;46263;44.726;10.396;2022-08-04T09:49:52;100349.63;;;30.78;40.05
60417;BME280;46263;44.726;10.396;2022-08-04T10:00:12;100350.31;;;31.52;40.82
60417;BME280;46263;44.726;10.396;2022-08-04T10:02:46;100350.34;;;31.98;39.23
60417;BME280;46263;44.726;10.396;2022-08-04T10:05:13;100344.59;;;32.36;37.62
60417;BME280;46263;44.726;10.396;2022-08-04T10:13:04;100337.00;;;32.63;35.63
60417;BME280;46263;44.726;10.396;2022-08-04T10:15:42;100338.09;;;32.25;35.44
60417;BME280;46263;44.726;10.396;2022-08-04T10:28:59;100320.84;;;32.72;32.67
60417;BME280;46263;44.726;10.396;2022-08-04T10:31:23;100330.38;;;33.01;30.35
60417;BME280;46263;44.726;10.396;2022-08-04T10:33:53;100331.84;;;34.06;31.43
60417;BME280;46263;44.726;10.396;2022-08-04T10:36:22;100323.75;;;33.13;29.84
60417;BME280;46263;44.726;10.396;2022-08-04T10:39:02;100326.94;;;33.93;30.38
60417;BME280;46263;44.726;10.396;2022-08-04T10:46:44;100324.00;;;35.06;29.06
60417;BME280;46263;44.726;10.396;2022-08-04T10:49:21;100314.66;;;34.70;30.53
60417;BME280;46263;44.726;10.396;2022-08-04T10:54:18;100312.88;;;35.20;30.12
60417;BME280;46263;44.726;10.396;2022-08-04T10:56:51;100320.13;;;35.35;30.20
60417;BME280;46263;44.726;10.396;2022-08-04T10:59:23;100316.44;;;35.10;29.76
60417;BME280;46263;44.726;10.396;2022-08-04T11:01:51;100312.25;;;34.58;30.02
60417;BME280;46263;44.726;10.396;2022-08-04T11:04:54;100309.22;;;34.91;28.34
60417;BME280;46263;44.726;10.396;2022-08-04T11:07:10;100311.28;;;35.19;28.71
60417;BME280;46263;44.726;10.396;2022-08-04T11:09:36;100313.28;;;35.18;28.68
60417;BME280;46263;44.726;10.396;2022-08-04T11:12:09;100304.41;;;34.84;28.84
60417;BME280;46263;44.726;10.396;2022-08-04T11:17:19;100318.03;;;35.11;28.65
60417;BME280;46263;44.726;10.396;2022-08-04T11:19:47;100318.56;;;35.84;29.25
60417;BME280;46263;44.726;10.396;2022-08-04T11:22:14;100312.56;;;36.07;28.33
60417;BME280;46263;44.726;10.396;2022-08-04T11:27:23;100310.97;;;35.70;28.53
60417;BME280;46263;44.726;10.396;2022-08-04T11:32:39;100304.91;;;35.18;28.65
60417;BME280;46263;44.726;10.396;2022-08-04T11:35:08;100302.97;;;35.76;29.25
60417;BME280;46263;44.726;10.396;2022-08-04T11:37:44;100300.94;;;36.12;28.67
60417;BME280;46263;44.726;10.396;2022-08-04T11:40:21;100289.25;;;36.63;27.11
60417;BME280;46263;44.726;10.396;2022-08-04T11:42:51;100296.56;;;36.36;27.25
60417;BME280;46263;44.726;10.396;2022-08-04T11:45:22;100292.53;;;35.16;26.54
60417;BME280;46263;44.726;10.396;2022-08-04T11:48:00;100290.75;;;34.69;27.20
60417;BME280;46263;44.726;10.396;2022-08-04T11:50:43;100297.34;;;36.22;29.37
60417;BME280;46263;44.726;10.396;2022-08-04T11:53:13;100282.56;;;36.32;27.44
60417;BME280;46263;44.726;10.396;2022-08-04T11:55:41;100272.16;;;36.36;28.88
60417;BME280;46263;44.726;10.396;2022-08-04T11:58:08;100279.22;;;36.76;26.39
60417;BME280;46263;44.726;10.396;2022-08-04T12:00:33;100277.78;;;36.18;27.70
60417;BME280;46263;44.726;10.396;2022-08-04T12:06:05;100267.78;;;36.35;26.47
60417;BME280;46263;44.726;10.396;2022-08-04T12:08:28;100273.66;;;36.62;26.86
60417;BME280;46263;44.726;10.396;2022-08-04T12:13:49;100277.44;;;35.74;26.81
60417;BME280;46263;44.726;10.396;2022-08-04T12:16:33;100264.44;;;36.65;26.12
60417;BME280;46263;44.726;10.396;2022-08-04T12:19:01;100266.00;;;36.70;26.84
60417;BME280;46263;44.726;10.396;2022-08-04T12:21:43;100272.75;;;36.87;26.88
60417;BME280;46263;44.726;10.396;2022-08-04T12:24:16;100279.81;;;36.00;26.37
60417;BME280;46263;44.726;10.396;2022-08-04T12:26:44;100268.81;;;36.70;27.02
60417;BME280;46263;44.726;10.396;2022-08-04T12:29:14;100262.25;;;37.01;24.98
60417;BME280;46263;44.726;10.396;2022-08-04T12:36:57;100250.56;;;37.21;25.43
60417;BME280;46263;44.726;10.396;2022-08-04T12:39:26;100253.72;;;37.26;26.66
60417;BME280;46263;44.726;10.396;2022-08-04T12:44:19;100253.25;;;37.35;26.65
60417;BME280;46263;44.726;10.396;2022-08-04T12:46:46;100248.22;;;37.60;25.26
60417;BME280;46263;44.726;10.396;2022-08-04T12:49:12;100248.56;;;37.73;24.29
60417;BME280;46263;44.726;10.396;2022-08-04T12:51:39;100252.25;;;38.04;25.88
60417;BME280;46263;44.726;10.396;2022-08-04T12:54:06;100250.94;;;38.15;24.89
60417;BME280;46263;44.726;10.396;2022-08-04T12:56:32;100245.03;;;38.40;26.11
60417;BME280;46263;44.726;10.396;2022-08-04T12:59:03;100238.69;;;38.36;25.73
60417;BME280;46263;44.726;10.396;2022-08-04T13:01:29;100230.56;;;37.70;26.46
60417;BME280;46263;44.726;10.396;2022-08-04T13:03:56;100241.13;;;37.52;24.90
60417;BME280;46263;44.726;10.396;2022-08-04T13:06:23;100236.88;;;37.30;23.90
60417;BME280;46263;44.726;10.396;2022-08-04T13:08:48;100233.56;;;37.87;24.47
60417;BME280;46263;44.726;10.396;2022-08-04T13:11:14;100230.88;;;38.17;25.03
60417;BME280;46263;44.726;10.396;2022-08-04T13:13:40;100224.72;;;38.29;24.86
60417;BME280;46263;44.726;10.396;2022-08-04T13:17:06;63966.91;;;-144.34;100.00
60417;BME280;46263;44.726;10.396;2022-08-04T13:20:31;63966.91;;;-144.34;100.00
60417;BME280;46263;44.726;10.396;2022-08-04T13:23:55;63966.91;;;-144.34;100.00
60417;BME280;46263;44.726;10.396;2022-08-04T13:27:21;63966.91;;;-144.34;100.00
60417;BME280;46263;44.726;10.396;2022-08-04T13:30:45;63966.91;;;-144.34;100.00
60417;BME280;46263;44.726;10.396;2022-08-04T13:34:10;63966.91;;;-144.34;100.00
60417;BME280;46263;44.726;10.396;2022-08-04T13:37:35;63966.91;;;-144.34;100.00
60417;BME280;46263;44.726;10.396;2022-08-04T13:40:59;63966.91;;;-144.34;100.00
60417;BME280;46263;44.726;10.396;2022-08-04T13:44:29;63966.91;;;-144.34;100.00
60417;BME280;46263;44.726;10.396;2022-08-04T13:47:24;100224.72;;;38.29;24.86
60417;BME280;46263;44.726;10.396;2022-08-04T13:52:35;100187.63;;;38.75;24.24
60417;BME280;46263;44.726;10.396;2022-08-04T13:55:01;100182.06;;;38.72;25.79
60417;BME280;46263;44.726;10.396;2022-08-04T13:57:28;100184.28;;;38.84;24.63
60417;BME280;46263;44.726;10.396;2022-08-04T13:59:56;100180.00;;;39.03;23.94
60417;BME280;46263;44.726;10.396;2022-08-04T14:02:40;100187.72;;;39.22;23.74
60417;BME280;46263;44.726;10.396;2022-08-04T14:05:18;100183.63;;;39.00;24.16
60417;BME280;46263;44.726;10.396;2022-08-04T14:10:40;100175.81;;;39.14;24.17
60417;BME280;46263;44.726;10.396;2022-08-04T14:13:08;100177.03;;;39.13;23.91
60417;BME280;46263;44.726;10.396;2022-08-04T14:15:41;100176.00;;;39.00;24.85
60417;BME280;46263;44.726;10.396;2022-08-04T14:18:17;100166.53;;;38.91;25.10
60417;BME280;46263;44.726;10.396;2022-08-04T14:23:22;100161.56;;;39.02;24.12
60417;BME280;46263;44.726;10.396;2022-08-04T14:25:48;100167.59;;;38.43;25.33
60417;BME280;46263;44.726;10.396;2022-08-04T14:28:13;100161.34;;;38.89;25.56
60417;BME280;46263;44.726;10.396;2022-08-04T14:30:50;100160.88;;;38.03;24.54
60417;BME280;46263;44.726;10.396;2022-08-04T14:33:16;100160.59;;;38.58;25.94
60417;BME280;46263;44.726;10.396;2022-08-04T14:35:42;100158.59;;;38.59;23.64
60417;BME280;46263;44.726;10.396;2022-08-04T14:38:19;100156.84;;;38.68;24.88
60417;BME280;46263;44.726;10.396;2022-08-04T14:40:45;100153.81;;;37.91;24.41
60417;BME280;46263;44.726;10.396;2022-08-04T14:43:10;100159.88;;;38.20;25.33
60417;BME280;46263;44.726;10.396;2022-08-04T14:45:41;100158.19;;;38.60;25.81
60417;BME280;46263;44.726;10.396;2022-08-04T14:48:11;100147.63;;;38.68;24.87
60417;BME280;46263;44.726;10.396;2022-08-04T14:50:38;100146.78;;;38.10;25.19
60417;BME280;46263;44.726;10.396;2022-08-04T14:53:08;100140.41;;;38.06;25.51
60417;BME280;46263;44.726;10.396;2022-08-04T14:55:34;100151.38;;;38.27;25.70
60417;BME280;46263;44.726;10.396;2022-08-04T14:57:59;100149.84;;;38.23;25.06
60417;BME280;46263;44.726;10.396;2022-08-04T15:00:26;100144.56;;;38.55;25.00
60417;BME280;46263;44.726;10.396;2022-08-04T15:02:52;100143.09;;;38.16;25.43
60417;BME280;46263;44.726;10.396;2022-08-04T15:05:19;100136.84;;;38.36;25.15
60417;BME280;46263;44.726;10.396;2022-08-04T15:07:44;100135.09;;;38.45;25.86
60417;BME280;46263;44.726;10.396;2022-08-04T15:10:10;100135.81;;;38.23;26.89
60417;BME280;46263;44.726;10.396;2022-08-04T15:12:35;100136.81;;;38.05;26.50
60417;BME280;46263;44.726;10.396;2022-08-04T15:15:01;100128.50;;;38.29;25.08
60417;BME280;46263;44.726;10.396;2022-08-04T15:17:26;100121.31;;;37.94;26.45
60417;BME280;46263;44.726;10.396;2022-08-04T15:19:52;100126.81;;;38.04;26.53
60417;BME280;46263;44.726;10.396;2022-08-04T15:22:18;100119.72;;;37.93;25.53
60417;BME280;46263;44.726;10.396;2022-08-04T15:24:43;100125.88;;;38.14;25.55
60417;BME280;46263;44.726;10.396;2022-08-04T15:27:08;100119.66;;;38.00;25.99
60417;BME280;46263;44.726;10.396;2022-08-04T15:29:37;100114.56;;;37.54;26.52
60417;BME280;46263;44.726;10.396;2022-08-04T15:32:03;100116.50;;;37.57;25.80
60417;BME280;46263;44.726;10.396;2022-08-04T15:34:46;100119.56;;;37.73;25.43
60417;BME280;46263;44.726;10.396;2022-08-04T15:37:14;100121.00;;;37.50;26.18
60417;BME280;46263;44.726;10.396;2022-08-04T15:39:43;100124.66;;;37.44;25.18
60417;BME280;46263;44.726;10.396;2022-08-04T15:42:12;100121.78;;;37.06;24.86
60417;BME280;46263;44.726;10.396;2022-08-04T15:44:57;100115.78;;;37.08;25.93
60417;BME280;46263;44.726;10.396;2022-08-04T15:47:27;100116.91;;;37.21;26.31
60417;BME280;46263;44.726;10.396;2022-08-04T15:50:09;100123.84;;;36.99;26.13
60417;BME280;46263;44.726;10.396;2022-08-04T15:55:37;100109.66;;;37.24;26.08
60417;BME280;46263;44.726;10.396;2022-08-04T16:05:55;100113.31;;;37.13;26.26
60417;BME280;46263;44.726;10.396;2022-08-04T16:08:21;100105.31;;;37.15;25.61
60417;BME280;46263;44.726;10.396;2022-08-04T16:10:46;100112.19;;;37.04;26.41
60417;BME280;46263;44.726;10.396;2022-08-04T16:13:13;100098.56;;;37.09;26.78
60417;BME280;46263;44.726;10.396;2022-08-04T16:15:40;100095.25;;;36.70;25.65
60417;BME280;46263;44.726;10.396;2022-08-04T16:18:06;100097.97;;;36.84;26.20
60417;BME280;46263;44.726;10.396;2022-08-04T16:20:32;100096.75;;;36.89;26.62
60417;BME280;46263;44.726;10.396;2022-08-04T16:22:59;100091.19;;;36.81;27.14
60417;BME280;46263;44.726;10.396;2022-08-04T16:25:42;100087.41;;;36.50;27.31
60417;BME280;46263;44.726;10.396;2022-08-04T16:28:53;100086.34;;;36.30;27.20
60417;BME280;46263;44.726;10.396;2022-08-04T16:30:58;100083.03;;;36.42;27.41
60417;BME280;46263;44.726;10.396;2022-08-04T16:33:27;100088.31;;;36.37;26.73
60417;BME280;46263;44.726;10.396;2022-08-04T16:35:52;100082.94;;;35.83;27.92
60417;BME280;46263;44.726;10.396;2022-08-04T16:38:19;100087.69;;;35.90;27.66
60417;BME280;46263;44.726;10.396;2022-08-04T16:40:44;100083.38;;;35.78;27.46
60417;BME280;46263;44.726;10.396;2022-08-04T16:43:17;100088.19;;;35.57;27.02
60417;BME280;46263;44.726;10.396;2022-08-04T16:45:49;100079.47;;;35.44;27.81
60417;BME280;46263;44.726;10.396;2022-08-04T16:48:18;100079.09;;;35.06;28.15
60417;BME280;46263;44.726;10.396;2022-08-04T16:51:02;100090.25;;;34.99;28.60
60417;BME280;46263;44.726;10.396;2022-08-04T16:53:33;100086.28;;;34.82;28.93
60417;BME280;46263;44.726;10.396;2022-08-04T16:55:58;100084.63;;;34.60;28.86
60417;BME280;46263;44.726;10.396;2022-08-04T16:58:26;100086.22;;;34.68;28.92